Time;durP1;ratioP1;P1;durP2;ratioP2;P2;SDS_P1;SDS_P2;PMS_P1;PMS_P2;Temp;Humidity;BMP_temperature;BMP_pressure;BME280_temperature;BME280_humidity;BME280_pressure;Samples;Min_cycle;Max_cycle;Signal;HPM_P1;HPM_P2
2022/12/30 00:00:23;;;;;;;16.47;3.43;;;;;;;;;;4986671;28;20223;-67
2022/12/30 00:02:49;;;;;;;15.77;2.53;;;;;;;;;;4986427;28;20290;-67
2022/12/30 00:05:14;;;;;;;11.83;2.33;;;;;;;;;;4989971;28;20266;-67
2022/12/30 00:07:40;;;;;;;22.10;2.53;;;;;;;;;;4994279;28;20200;-69
2022/12/30 00:10:05;;;;;;;17.90;2.67;;;;;;;;;;4984131;28;20721;-67
2022/12/30 00:35:02;;;;;;;20.30;4.03;;;;;;;;;;4993475;28;20192;-67
2022/12/30 00:37:27;;;;;;;13.00;2.70;;;;;;;;;;4986811;28;20188;-67
2022/12/30 00:39:54;;;;;;;19.13;2.87;;;;;;;;;;4982662;28;20254;-68
2022/12/30 00:45:04;;;;;;;20.13;3.00;;;;;;;;;;4990638;28;20198;-68
2022/12/30 00:47:29;;;;;;;18.70;3.77;;;;;;;;;;4987802;28;20187;-67
2022/12/30 00:58:07;;;;;;;19.03;2.70;;;;;;;;;;4988265;28;20188;-67
2022/12/30 01:00:32;;;;;;;14.23;3.00;;;;;;;;;;4975953;28;20298;-67
2022/12/30 01:02:57;;;;;;;15.07;2.80;;;;;;;;;;4988598;28;20191;-67
2022/12/30 01:05:23;;;;;;;12.80;2.57;;;;;;;;;;4984433;28;20200;-67
2022/12/30 01:07:48;;;;;;;15.03;2.73;;;;;;;;;;4980526;28;20518;-67
2022/12/30 01:10:14;;;;;;;16.73;3.37;;;;;;;;;;4984209;28;20187;-67
2022/12/30 01:12:39;;;;;;;15.23;2.77;;;;;;;;;;4988815;28;20370;-67
2022/12/30 01:15:06;;;;;;;15.97;3.60;;;;;;;;;;4981298;28;20219;-67
2022/12/30 01:17:33;;;;;;;18.60;2.80;;;;;;;;;;4986575;28;20289;-67
2022/12/30 01:19:58;;;;;;;15.70;3.43;;;;;;;;;;4983739;28;20271;-67
2022/12/30 01:22:24;;;;;;;17.50;2.50;;;;;;;;;;4992556;28;20290;-68
2022/12/30 01:24:50;;;;;;;25.50;3.73;;;;;;;;;;4978433;28;20294;-67
2022/12/30 01:27:15;;;;;;;16.87;3.17;;;;;;;;;;4982670;28;20203;-67
2022/12/30 01:29:42;;;;;;;13.73;2.60;;;;;;;;;;4989571;28;20192;-67
2022/12/30 01:32:14;;;;;;;14.27;3.43;;;;;;;;;;4986733;28;20297;-67
2022/12/30 01:34:40;;;;;;;14.07;2.37;;;;;;;;;;4982942;28;20219;-68
2022/12/30 01:37:06;;;;;;;14.57;2.70;;;;;;;;;;4989448;28;20285;-67
2022/12/30 01:39:32;;;;;;;12.40;2.50;;;;;;;;;;4995774;28;20651;-67
2022/12/30 01:41:57;;;;;;;17.20;2.57;;;;;;;;;;4988189;28;20617;-67
2022/12/30 01:44:51;;;;;;;21.83;3.27;;;;;;;;;;4986678;28;20199;-68
2022/12/30 01:47:26;;;;;;;19.63;3.40;;;;;;;;;;4983437;28;20689;-67
2022/12/30 01:50:04;;;;;;;12.43;2.60;;;;;;;;;;4987296;28;20232;-68
2022/12/30 01:52:31;;;;;;;15.80;2.50;;;;;;;;;;4985649;28;20219;-68
2022/12/30 01:55:02;;;;;;;23.53;2.70;;;;;;;;;;4985796;28;20191;-68
2022/12/30 01:57:29;;;;;;;19.33;2.77;;;;;;;;;;4985148;28;20206;-68
2022/12/30 01:59:54;;;;;;;11.13;2.17;;;;;;;;;;4979252;28;20212;-67
2022/12/30 02:02:20;;;;;;;10.90;2.43;;;;;;;;;;4982643;28;20577;-67
2022/12/30 02:04:46;;;;;;;21.97;3.07;;;;;;;;;;4980973;28;20254;-67
2022/12/30 02:07:25;;;;;;;13.27;2.07;;;;;;;;;;4981630;28;20860;-68
2022/12/30 02:09:52;;;;;;;16.13;2.53;;;;;;;;;;4988126;28;20192;-67
2022/12/30 02:12:17;;;;;;;8.07;1.97;;;;;;;;;;4983707;28;20730;-67
2022/12/30 02:14:46;;;;;;;17.27;2.37;;;;;;;;;;4986288;28;20207;-68
2022/12/30 02:17:21;;;;;;;10.10;2.03;;;;;;;;;;4979919;28;20199;-68
2022/12/30 02:20:19;;;;;;;17.30;2.70;;;;;;;;;;4980237;28;20217;-67
2022/12/30 02:23:03;;;;;;;12.63;2.53;;;;;;;;;;4980606;28;20287;-67
2022/12/30 02:25:50;;;;;;;16.73;2.30;;;;;;;;;;4980588;28;20224;-67
2022/12/30 02:28:52;;;;;;;14.40;2.50;;;;;;;;;;4984033;28;20201;-67
2022/12/30 02:31:21;;;;;;;16.70;2.87;;;;;;;;;;4975339;28;20279;-67
2022/12/30 02:34:05;;;;;;;15.00;2.50;;;;;;;;;;4984459;28;20196;-68
2022/12/30 02:36:55;;;;;;;11.87;2.73;;;;;;;;;;4980613;28;20655;-67
2022/12/30 02:39:39;;;;;;;12.47;2.27;;;;;;;;;;4989000;28;20222;-67
2022/12/30 02:45:18;;;;;;;17.27;2.93;;;;;;;;;;4983478;28;20257;-68
2022/12/30 02:47:51;;;;;;;13.93;2.30;;;;;;;;;;4985661;28;20199;-68
2022/12/30 02:53:07;;;;;;;15.80;2.43;;;;;;;;;;4981874;28;20231;-69
2022/12/30 02:55:33;;;;;;;20.10;2.43;;;;;;;;;;4980718;28;20196;-67
2022/12/30 02:57:58;;;;;;;13.33;2.33;;;;;;;;;;4978851;28;20192;-67
2022/12/30 03:06:11;;;;;;;17.40;2.50;;;;;;;;;;4985999;28;20535;-68
2022/12/30 03:08:47;;;;;;;8.63;2.03;;;;;;;;;;4987479;28;20191;-68
2022/12/30 03:11:18;;;;;;;11.50;1.70;;;;;;;;;;4984969;28;20273;-67
2022/12/30 03:13:55;;;;;;;12.60;2.10;;;;;;;;;;4986046;28;20195;-69
2022/12/30 03:16:37;;;;;;;11.57;2.17;;;;;;;;;;4986298;28;20295;-67
2022/12/30 03:19:09;;;;;;;13.23;2.47;;;;;;;;;;4999554;28;20278;-67
2022/12/30 03:21:39;;;;;;;12.63;1.90;;;;;;;;;;4978587;28;20617;-68
2022/12/30 03:27:04;;;;;;;16.70;2.87;;;;;;;;;;4993759;28;20302;-67
2022/12/30 03:29:35;;;;;;;19.20;2.50;;;;;;;;;;4985903;28;20202;-67
2022/12/30 03:32:01;;;;;;;9.60;2.60;;;;;;;;;;4986638;28;20227;-68
2022/12/30 03:34:27;;;;;;;13.70;2.37;;;;;;;;;;4990401;28;20195;-68
2022/12/30 03:37:01;;;;;;;15.30;3.00;;;;;;;;;;4984145;28;20203;-67
2022/12/30 03:39:32;;;;;;;20.87;3.63;;;;;;;;;;4988001;28;20664;-68
2022/12/30 03:41:59;;;;;;;17.50;2.97;;;;;;;;;;4985785;28;20644;-67
2022/12/30 03:44:25;;;;;;;15.80;2.73;;;;;;;;;;4984822;28;20270;-68
2022/12/30 03:46:50;;;;;;;13.93;2.43;;;;;;;;;;4989310;28;20266;-68
2022/12/30 03:49:17;;;;;;;15.17;2.73;;;;;;;;;;4986350;28;20263;-67
2022/12/30 03:51:42;;;;;;;17.47;2.67;;;;;;;;;;4990265;28;20277;-68
2022/12/30 03:54:08;;;;;;;15.57;2.87;;;;;;;;;;4986952;28;20199;-67
2022/12/30 03:56:33;;;;;;;13.87;2.80;;;;;;;;;;4979031;28;20612;-68
2022/12/30 03:58:58;;;;;;;21.70;2.97;;;;;;;;;;4987334;28;20278;-68
2022/12/30 04:01:24;;;;;;;15.20;2.50;;;;;;;;;;4983856;28;20211;-68
2022/12/30 04:03:49;;;;;;;13.93;2.70;;;;;;;;;;4986938;28;20282;-68
2022/12/30 04:06:14;;;;;;;15.53;2.93;;;;;;;;;;4985541;28;20192;-68
2022/12/30 04:08:40;;;;;;;19.33;2.83;;;;;;;;;;4990352;28;20209;-68
2022/12/30 04:11:05;;;;;;;14.40;2.60;;;;;;;;;;4980554;28;20242;-68
2022/12/30 04:13:31;;;;;;;17.33;2.93;;;;;;;;;;4983383;28;20625;-68
2022/12/30 04:15:56;;;;;;;17.40;2.77;;;;;;;;;;4986377;28;20278;-68
2022/12/30 04:18:22;;;;;;;21.70;3.10;;;;;;;;;;4989391;28;20199;-67
2022/12/30 04:20:48;;;;;;;23.53;3.17;;;;;;;;;;4985672;28;20200;-67
2022/12/30 04:23:15;;;;;;;20.40;2.80;;;;;;;;;;4980295;28;20246;-67
2022/12/30 04:25:40;;;;;;;15.50;3.10;;;;;;;;;;4988751;28;20199;-68
2022/12/30 04:28:06;;;;;;;21.77;3.50;;;;;;;;;;4984467;28;20210;-68
2022/12/30 04:30:32;;;;;;;16.33;3.37;;;;;;;;;;4994690;28;20658;-69
2022/12/30 04:32:57;;;;;;;17.53;3.27;;;;;;;;;;4988119;28;20274;-68
2022/12/30 04:35:22;;;;;;;21.23;3.10;;;;;;;;;;4992362;28;20212;-68
2022/12/30 04:37:48;;;;;;;14.57;2.73;;;;;;;;;;4984605;28;20238;-68
2022/12/30 04:40:14;;;;;;;18.60;2.97;;;;;;;;;;4991107;28;20713;-68
2022/12/30 04:42:40;;;;;;;14.33;2.93;;;;;;;;;;4996673;28;20198;-68
2022/12/30 04:45:05;;;;;;;18.03;3.17;;;;;;;;;;4993682;28;20199;-68
2022/12/30 04:47:31;;;;;;;17.30;3.23;;;;;;;;;;4984578;28;20203;-68
2022/12/30 04:49:56;;;;;;;22.03;3.10;;;;;;;;;;4986722;28;20709;-68
2022/12/30 04:52:22;;;;;;;16.87;3.07;;;;;;;;;;4987866;28;20211;-68
2022/12/30 04:54:47;;;;;;;16.17;2.90;;;;;;;;;;4987762;28;20407;-68
2022/12/30 04:57:12;;;;;;;19.77;3.50;;;;;;;;;;4988019;28;20261;-69
2022/12/30 04:59:38;;;;;;;17.87;2.83;;;;;;;;;;4987308;28;20228;-69
2022/12/30 05:02:03;;;;;;;22.87;3.90;;;;;;;;;;4979362;28;20250;-68
2022/12/30 05:04:28;;;;;;;21.13;2.80;;;;;;;;;;4987623;28;20307;-68
2022/12/30 05:06:54;;;;;;;16.63;2.57;;;;;;;;;;4989104;28;20187;-68
2022/12/30 05:09:19;;;;;;;21.17;3.20;;;;;;;;;;4982176;28;20207;-68
2022/12/30 05:11:45;;;;;;;22.70;3.00;;;;;;;;;;4977689;28;20212;-68
2022/12/30 05:14:10;;;;;;;19.60;2.87;;;;;;;;;;4985263;28;20218;-68
2022/12/30 05:16:35;;;;;;;19.07;2.93;;;;;;;;;;4988511;28;20222;-70
2022/12/30 05:19:01;;;;;;;14.83;2.63;;;;;;;;;;4976732;28;20188;-69
2022/12/30 05:21:26;;;;;;;19.47;3.10;;;;;;;;;;4985994;28;20523;-68
2022/12/30 05:26:36;;;;;;;18.90;2.70;;;;;;;;;;4982949;28;20191;-68
2022/12/30 05:29:01;;;;;;;13.27;2.63;;;;;;;;;;4985538;28;20187;-68
2022/12/30 05:31:26;;;;;;;19.87;3.00;;;;;;;;;;4983777;28;20231;-68
2022/12/30 05:33:52;;;;;;;13.40;2.83;;;;;;;;;;4988216;28;20549;-68
2022/12/30 05:36:17;;;;;;;20.73;2.80;;;;;;;;;;4989527;28;20206;-68
2022/12/30 05:38:43;;;;;;;18.23;3.30;;;;;;;;;;4981519;28;20274;-68
2022/12/30 05:41:09;;;;;;;21.43;2.80;;;;;;;;;;4989181;28;20291;-69
2022/12/30 05:43:34;;;;;;;15.80;2.93;;;;;;;;;;4984977;28;20204;-69
2022/12/30 05:46:00;;;;;;;13.07;2.67;;;;;;;;;;4988157;28;20191;-68
2022/12/30 05:48:25;;;;;;;16.30;2.23;;;;;;;;;;4983680;28;20199;-68
2022/12/30 05:50:51;;;;;;;22.73;2.87;;;;;;;;;;4988532;28;20195;-68
2022/12/30 05:53:17;;;;;;;21.27;3.27;;;;;;;;;;4984964;28;20223;-68
2022/12/30 05:55:42;;;;;;;17.93;2.43;;;;;;;;;;4978415;28;20196;-68
2022/12/30 05:58:08;;;;;;;15.07;3.17;;;;;;;;;;4982824;28;20211;-69
2022/12/30 06:00:34;;;;;;;14.03;2.50;;;;;;;;;;4985672;28;20649;-68
2022/12/30 06:02:59;;;;;;;21.73;3.13;;;;;;;;;;4980324;28;20215;-68
2022/12/30 06:05:25;;;;;;;17.63;2.77;;;;;;;;;;4974610;28;20201;-68
2022/12/30 06:07:50;;;;;;;20.00;2.77;;;;;;;;;;4996731;28;20192;-69
2022/12/30 06:10:15;;;;;;;15.13;2.67;;;;;;;;;;4980408;28;20606;-68
2022/12/30 06:12:41;;;;;;;18.93;3.50;;;;;;;;;;4984747;28;20299;-68
2022/12/30 06:15:07;;;;;;;15.83;2.90;;;;;;;;;;4993439;28;20192;-68
2022/12/30 06:17:32;;;;;;;13.50;2.50;;;;;;;;;;4976111;28;20184;-68
2022/12/30 06:19:58;;;;;;;18.87;2.77;;;;;;;;;;4988390;28;20246;-68
2022/12/30 06:22:23;;;;;;;17.03;2.67;;;;;;;;;;4986229;28;20217;-68
2022/12/30 06:24:49;;;;;;;16.90;3.17;;;;;;;;;;4983542;28;20245;-68
2022/12/30 06:27:14;;;;;;;16.27;2.83;;;;;;;;;;4978847;28;20200;-68
2022/12/30 06:29:39;;;;;;;16.63;2.53;;;;;;;;;;4983276;28;20279;-68
2022/12/30 06:32:05;;;;;;;16.93;2.60;;;;;;;;;;4986330;28;20307;-68
2022/12/30 06:34:30;;;;;;;20.00;2.60;;;;;;;;;;4980990;28;20886;-69
2022/12/30 06:36:56;;;;;;;19.93;2.90;;;;;;;;;;4987278;28;20190;-68
2022/12/30 06:39:21;;;;;;;15.90;2.63;;;;;;;;;;4977123;28;20196;-69
2022/12/30 06:41:47;;;;;;;14.43;2.90;;;;;;;;;;4993213;28;20238;-68
2022/12/30 06:44:12;;;;;;;19.07;2.90;;;;;;;;;;4996965;28;20202;-68
2022/12/30 06:46:37;;;;;;;13.60;2.33;;;;;;;;;;4991709;28;20203;-68
2022/12/30 06:49:03;;;;;;;15.70;2.73;;;;;;;;;;4986447;28;20201;-68
2022/12/30 06:51:28;;;;;;;16.10;2.93;;;;;;;;;;4986096;28;22056;-68
2022/12/30 06:53:53;;;;;;;23.97;2.50;;;;;;;;;;4982767;28;20204;-69
2022/12/30 06:56:19;;;;;;;15.67;2.50;;;;;;;;;;4989286;28;20195;-69
2022/12/30 06:58:44;;;;;;;14.43;2.50;;;;;;;;;;4996555;28;20198;-69
2022/12/30 07:01:10;;;;;;;19.33;2.93;;;;;;;;;;4992093;28;20392;-68
2022/12/30 07:03:35;;;;;;;20.00;2.70;;;;;;;;;;5001875;28;20218;-69
2022/12/30 07:06:00;;;;;;;22.20;3.10;;;;;;;;;;4999052;28;20225;-68
2022/12/30 07:08:26;;;;;;;21.73;3.50;;;;;;;;;;5002914;28;20199;-69
2022/12/30 07:10:51;;;;;;;24.27;3.27;;;;;;;;;;4991698;28;20211;-68
2022/12/30 07:13:17;;;;;;;21.87;2.33;;;;;;;;;;4996923;28;20224;-68
2022/12/30 07:15:42;;;;;;;12.60;3.33;;;;;;;;;;4971808;28;20557;-68
2022/12/30 07:18:08;;;;;;;17.40;3.20;;;;;;;;;;4983603;28;20191;-69
2022/12/30 07:20:33;;;;;;;13.47;2.73;;;;;;;;;;4991476;28;20613;-69
2022/12/30 07:22:59;;;;;;;14.00;2.40;;;;;;;;;;4987466;28;20737;-68
2022/12/30 07:25:25;;;;;;;9.63;2.13;;;;;;;;;;4991286;28;20420;-68
2022/12/30 07:27:56;;;;;;;18.70;2.77;;;;;;;;;;5000661;28;20634;-70
2022/12/30 07:30:21;;;;;;;17.57;2.40;;;;;;;;;;4999959;28;20196;-68
2022/12/30 07:32:47;;;;;;;18.10;2.50;;;;;;;;;;4990775;28;20222;-68
2022/12/30 07:35:12;;;;;;;12.03;2.67;;;;;;;;;;4990857;28;20630;-69
2022/12/30 07:37:38;;;;;;;16.33;3.33;;;;;;;;;;4991973;28;20202;-68
2022/12/30 07:40:04;;;;;;;20.87;3.90;;;;;;;;;;4989829;28;20195;-68
2022/12/30 07:42:29;;;;;;;14.20;2.70;;;;;;;;;;4988541;28;20671;-70
2022/12/30 07:44:55;;;;;;;18.33;2.93;;;;;;;;;;4989467;28;20206;-68
2022/12/30 07:47:20;;;;;;;11.60;2.63;;;;;;;;;;4987816;28;20501;-68
2022/12/30 07:49:45;;;;;;;11.93;2.53;;;;;;;;;;4992245;28;20191;-68
2022/12/30 07:52:11;;;;;;;21.00;2.40;;;;;;;;;;4991818;28;20219;-68
2022/12/30 07:54:36;;;;;;;15.40;2.43;;;;;;;;;;4983880;28;20598;-68
2022/12/30 07:57:02;;;;;;;25.67;2.80;;;;;;;;;;4971629;28;20204;-68
2022/12/30 07:59:27;;;;;;;12.73;2.73;;;;;;;;;;4983454;28;20203;-68
2022/12/30 08:01:52;;;;;;;20.50;2.60;;;;;;;;;;4983679;28;20263;-68
2022/12/30 08:04:18;;;;;;;16.13;2.90;;;;;;;;;;4976517;28;20191;-68
2022/12/30 08:06:43;;;;;;;25.30;4.50;;;;;;;;;;4989457;28;20207;-68
2022/12/30 08:09:08;;;;;;;17.13;3.50;;;;;;;;;;4986058;28;20218;-68
2022/12/30 08:11:35;;;;;;;28.87;12.37;;;;;;;;;;4985809;28;20208;-69
2022/12/30 08:14:00;;;;;;;11.60;3.60;;;;;;;;;;4983589;28;20199;-68
2022/12/30 08:16:25;;;;;;;13.50;2.67;;;;;;;;;;4989839;28;20261;-68
2022/12/30 08:18:51;;;;;;;16.43;3.03;;;;;;;;;;4987853;28;20602;-68
2022/12/30 08:21:16;;;;;;;12.00;2.40;;;;;;;;;;4987187;28;20187;-68
2022/12/30 08:23:44;;;;;;;9.17;2.37;;;;;;;;;;4989520;28;20297;-68
2022/12/30 08:26:15;;;;;;;10.50;2.43;;;;;;;;;;4990325;28;20566;-68
2022/12/30 08:28:40;;;;;;;10.23;2.60;;;;;;;;;;4989995;28;20251;-68
2022/12/30 08:31:12;;;;;;;16.00;2.57;;;;;;;;;;4989721;28;20200;-68
2022/12/30 08:33:37;;;;;;;11.23;2.60;;;;;;;;;;4986934;28;20706;-68
2022/12/30 08:36:05;;;;;;;9.53;2.73;;;;;;;;;;4977288;28;20279;-68
2022/12/30 08:38:33;;;;;;;17.87;3.60;;;;;;;;;;4986177;28;20235;-68
2022/12/30 08:41:07;;;;;;;18.00;3.00;;;;;;;;;;4982797;28;20195;-68
2022/12/30 08:43:33;;;;;;;18.23;4.07;;;;;;;;;;4980619;28;20710;-69
2022/12/30 08:45:59;;;;;;;16.77;3.27;;;;;;;;;;4989214;28;20283;-68
2022/12/30 08:48:24;;;;;;;13.60;2.83;;;;;;;;;;4988067;28;20227;-68
2022/12/30 08:50:53;;;;;;;15.53;2.83;;;;;;;;;;4986276;28;20552;-68
2022/12/30 08:53:18;;;;;;;17.73;3.07;;;;;;;;;;4979637;28;20226;-68
2022/12/30 08:55:44;;;;;;;15.33;2.53;;;;;;;;;;4981044;28;20695;-68
2022/12/30 08:58:09;;;;;;;13.23;2.13;;;;;;;;;;4971677;28;20270;-67
2022/12/30 09:00:36;;;;;;;16.00;2.37;;;;;;;;;;4976753;28;20257;-68
2022/12/30 09:03:02;;;;;;;14.03;3.10;;;;;;;;;;4985166;28;20215;-68
2022/12/30 09:05:28;;;;;;;10.67;2.37;;;;;;;;;;4985465;28;20214;-68
2022/12/30 09:07:54;;;;;;;12.70;2.60;;;;;;;;;;4979206;28;20695;-67
2022/12/30 09:10:19;;;;;;;12.93;2.20;;;;;;;;;;4989913;28;20500;-67
2022/12/30 09:12:45;;;;;;;10.00;2.13;;;;;;;;;;4995424;28;20214;-67
2022/12/30 09:15:10;;;;;;;12.53;2.30;;;;;;;;;;4999200;28;20191;-69
2022/12/30 09:17:35;;;;;;;11.50;2.10;;;;;;;;;;4989921;28;20191;-67
2022/12/30 09:20:01;;;;;;;13.97;2.13;;;;;;;;;;4989673;28;20676;-67
2022/12/30 09:22:26;;;;;;;14.47;2.27;;;;;;;;;;4990986;28;20187;-67
2022/12/30 09:24:52;;;;;;;9.90;1.90;;;;;;;;;;4984192;28;20755;-67
2022/12/30 09:27:17;;;;;;;8.23;1.90;;;;;;;;;;4989116;28;20222;-69
2022/12/30 09:29:42;;;;;;;11.53;2.20;;;;;;;;;;4992709;28;20188;-68
2022/12/30 09:32:08;;;;;;;13.57;2.03;;;;;;;;;;5000207;28;20653;-67
2022/12/30 09:34:33;;;;;;;13.80;2.50;;;;;;;;;;5000093;28;20230;-67
2022/12/30 09:36:58;;;;;;;10.50;1.87;;;;;;;;;;4998875;28;20201;-68
2022/12/30 09:39:30;;;;;;;14.20;2.40;;;;;;;;;;5001376;28;20564;-67
2022/12/30 09:45:03;;;;;;;7.17;1.90;;;;;;;;;;4986625;28;20267;-68
2022/12/30 09:47:42;;;;;;;12.97;2.33;;;;;;;;;;4984971;28;20281;-68
2022/12/30 09:50:35;;;;;;;15.07;2.53;;;;;;;;;;4988342;28;20191;-68
2022/12/30 09:53:10;;;;;;;12.80;2.60;;;;;;;;;;4995225;28;20325;-67
2022/12/30 09:55:56;;;;;;;15.00;2.47;;;;;;;;;;4985058;28;20195;-68
2022/12/30 09:58:34;;;;;;;12.05;2.03;;;;;;;;;;4993853;28;20201;-68
2022/12/30 10:01:21;;;;;;;10.03;2.20;;;;;;;;;;4996770;28;20230;-67
2022/12/30 10:03:47;;;;;;;10.37;2.40;;;;;;;;;;4992839;28;20495;-68
2022/12/30 10:06:21;;;;;;;10.10;2.50;;;;;;;;;;4996347;28;20191;-68
2022/12/30 10:08:52;;;;;;;13.07;2.00;;;;;;;;;;4987580;28;20286;-67
2022/12/30 10:11:29;;;;;;;13.10;2.15;;;;;;;;;;4998666;28;20203;-67
2022/12/30 10:14:09;;;;;;;10.07;2.00;;;;;;;;;;4985943;28;20253;-67
2022/12/30 10:16:57;;;;;;;10.68;2.20;;;;;;;;;;4994317;28;20191;-67
2022/12/30 10:20:04;;;;;;;13.73;2.20;;;;;;;;;;4991147;28;20216;-67
2022/12/30 10:22:32;;;;;;;11.82;2.00;;;;;;;;;;5000940;28;20209;-67
2022/12/30 10:25:35;;;;;;;6.40;1.80;;;;;;;;;;4991017;28;20287;-68
2022/12/30 10:28:02;;;;;;;7.85;1.70;;;;;;;;;;5001456;28;20693;-67
2022/12/30 10:30:38;;;;;;;7.73;1.97;;;;;;;;;;5001513;28;20212;-67
2022/12/30 10:33:13;;;;;;;9.37;1.90;;;;;;;;;;5007561;28;20222;-67
2022/12/30 10:35:39;;;;;;;9.52;1.58;;;;;;;;;;5002540;28;20692;-67
2022/12/30 10:38:11;;;;;;;8.33;1.87;;;;;;;;;;5004330;28;20219;-68
2022/12/30 10:40:46;;;;;;;11.77;2.10;;;;;;;;;;4998764;28;20305;-67
2022/12/30 10:43:23;;;;;;;6.40;2.38;;;;;;;;;;5001240;28;20611;-67
2022/12/30 10:45:49;;;;;;;7.38;1.60;;;;;;;;;;4998231;28;20191;-67
2022/12/30 10:48:33;;;;;;;7.60;1.93;;;;;;;;;;5004957;28;20195;-68
2022/12/30 10:50:59;;;;;;;7.35;2.03;;;;;;;;;;5004612;28;20195;-68
2022/12/30 10:53:27;;;;;;;6.55;1.60;;;;;;;;;;5007868;28;20614;-66
2022/12/30 10:55:56;;;;;;;9.48;2.28;;;;;;;;;;4994639;28;20246;-67
2022/12/30 10:58:29;;;;;;;7.88;2.05;;;;;;;;;;4993715;28;20199;-67
2022/12/30 11:00:54;;;;;;;9.95;2.10;;;;;;;;;;4996062;28;20245;-66
2022/12/30 11:03:29;;;;;;;6.85;1.55;;;;;;;;;;4998635;28;20222;-66
2022/12/30 11:05:54;;;;;;;7.40;1.67;;;;;;;;;;4991923;28;20221;-67
2022/12/30 11:08:29;;;;;;;8.60;1.90;;;;;;;;;;4997545;28;20383;-67
2022/12/30 11:11:06;;;;;;;5.60;1.92;;;;;;;;;;4994056;28;20721;-67
2022/12/30 11:16:26;;;;;;;5.85;1.35;;;;;;;;;;4988581;28;20202;-67
2022/12/30 11:18:52;;;;;;;5.78;1.52;;;;;;;;;;4644992;28;10000271;-66
2022/12/30 11:21:46;;;;;;;6.95;1.50;;;;;;;;;;4986610;28;20211;-66
2022/12/30 11:24:15;;;;;;;12.75;1.90;;;;;;;;;;4984230;28;20438;-66
2022/12/30 11:26:46;;;;;;;8.30;1.73;;;;;;;;;;4986346;28;20570;-66
2022/12/30 11:29:16;;;;;;;4.78;1.58;;;;;;;;;;4988566;28;20207;-67
2022/12/30 11:31:47;;;;;;;7.03;1.67;;;;;;;;;;4984183;28;20187;-67
2022/12/30 11:34:31;;;;;;;4.65;1.38;;;;;;;;;;4985848;28;20188;-67
2022/12/30 11:36:57;;;;;;;5.70;1.50;;;;;;;;;;4983849;28;20202;-67
2022/12/30 11:39:22;;;;;;;7.45;1.27;;;;;;;;;;4981793;28;20837;-67
2022/12/30 11:41:53;;;;;;;7.70;1.63;;;;;;;;;;4984320;28;20755;-67
2022/12/30 11:44:23;;;;;;;6.05;1.25;;;;;;;;;;4994388;28;20202;-67
2022/12/30 11:46:54;;;;;;;7.55;1.50;;;;;;;;;;4986112;28;20244;-67
2022/12/30 11:49:45;;;;;;;8.15;1.80;;;;;;;;;;4990609;28;20202;-67
2022/12/30 11:52:22;;;;;;;5.05;1.30;;;;;;;;;;4994569;28;20636;-67
2022/12/30 11:54:52;;;;;;;5.30;1.30;;;;;;;;;;4988829;28;20202;-67
2022/12/30 11:57:49;;;;;;;7.85;1.48;;;;;;;;;;4983670;28;20200;-67
2022/12/30 12:00:15;;;;;;;6.18;1.67;;;;;;;;;;4990551;28;20231;-67
2022/12/30 12:02:47;;;;;;;7.53;1.25;;;;;;;;;;4990619;28;20237;-68
2022/12/30 12:05:31;;;;;;;6.68;1.63;;;;;;;;;;4984575;28;20195;-69
2022/12/30 12:08:04;;;;;;;5.60;1.27;;;;;;;;;;4989802;28;20199;-67
2022/12/30 12:10:36;;;;;;;8.18;1.30;;;;;;;;;;4990389;28;20207;-67
2022/12/30 12:13:43;;;;;;;8.10;1.27;;;;;;;;;;4985175;28;20235;-67
2022/12/30 12:16:15;;;;;;;9.02;1.52;;;;;;;;;;4973235;28;20286;-67
2022/12/30 12:18:58;;;;;;;8.88;3.15;;;;;;;;;;4987944;28;20186;-67
2022/12/30 12:21:29;;;;;;;2.80;1.33;;;;;;;;;;4985765;28;20554;-67
2022/12/30 12:24:13;;;;;;;6.60;1.55;;;;;;;;;;4944328;28;1063199;-67
2022/12/30 12:26:51;;;;;;;4.30;1.23;;;;;;;;;;4986343;28;20191;-67
2022/12/30 12:29:17;;;;;;;7.15;1.33;;;;;;;;;;4978363;28;20222;-67
2022/12/30 12:31:45;;;;;;;4.70;0.93;;;;;;;;;;4995052;28;20449;-67
2022/12/30 12:34:38;;;;;;;2.88;0.80;;;;;;;;;;4981618;28;20219;-67
2022/12/30 12:37:14;;;;;;;5.10;0.93;;;;;;;;;;4991690;28;20284;-67
2022/12/30 12:40:12;;;;;;;5.10;1.15;;;;;;;;;;4985407;28;20843;-68
2022/12/30 12:42:47;;;;;;;8.23;1.10;;;;;;;;;;4992126;28;20191;-67
2022/12/30 12:45:45;;;;;;;6.45;1.75;;;;;;;;;;4984396;28;20225;-68
2022/12/30 12:48:32;;;;;;;5.00;0.75;;;;;;;;;;4985962;28;20210;-67
2022/12/30 12:51:00;;;;;;;5.60;0.93;;;;;;;;;;4976215;28;20196;-67
2022/12/30 12:53:45;;;;;;;4.63;1.20;;;;;;;;;;4977874;28;20583;-67
2022/12/30 12:56:44;;;;;;;8.18;2.33;;;;;;;;;;4979720;28;20234;-67
2022/12/30 12:59:24;;;;;;;7.07;2.67;;;;;;;;;;4983842;28;20605;-67
2022/12/30 13:02:14;;;;;;;6.38;1.50;;;;;;;;;;4985689;28;20274;-67
2022/12/30 13:05:09;;;;;;;6.30;0.90;;;;;;;;;;4982396;28;20215;-67
2022/12/30 13:07:50;;;;;;;5.38;0.90;;;;;;;;;;4984655;28;20210;-68
2022/12/30 13:10:30;;;;;;;3.90;0.90;;;;;;;;;;4985144;28;20207;-67
2022/12/30 13:13:03;;;;;;;3.95;1.02;;;;;;;;;;4977910;28;20214;-68
2022/12/30 13:15:41;;;;;;;5.85;1.33;;;;;;;;;;4975286;28;20235;-67
2022/12/30 13:18:15;;;;;;;7.90;1.63;;;;;;;;;;4988204;28;20195;-67
2022/12/30 13:20:51;;;;;;;3.75;0.90;;;;;;;;;;4988076;28;20191;-66
2022/12/30 13:23:19;;;;;;;5.05;1.30;;;;;;;;;;4988152;28;20258;-67
2022/12/30 13:25:56;;;;;;;4.80;0.98;;;;;;;;;;4989485;28;20694;-67
2022/12/30 13:28:25;;;;;;;3.60;0.82;;;;;;;;;;4989896;28;20195;-66
2022/12/30 13:31:04;;;;;;;6.95;1.30;;;;;;;;;;4991710;28;20265;-67
2022/12/30 13:34:17;;;;;;;6.13;1.30;;;;;;;;;;4981030;28;20200;-68
2022/12/30 13:36:53;;;;;;;6.40;1.23;;;;;;;;;;4985677;28;20484;-67
2022/12/30 13:39:42;;;;;;;5.60;1.10;;;;;;;;;;4984162;28;20222;-67
2022/12/30 13:42:38;;;;;;;3.90;0.95;;;;;;;;;;4987270;28;20195;-67
2022/12/30 13:45:19;;;;;;;5.63;1.40;;;;;;;;;;4985231;28;20257;-67
2022/12/30 13:47:46;;;;;;;6.20;1.10;;;;;;;;;;4990308;28;20209;-67
2022/12/30 13:50:24;;;;;;;5.15;1.00;;;;;;;;;;4980585;28;20415;-67
2022/12/30 13:52:56;;;;;;;5.78;1.00;;;;;;;;;;4993658;28;20206;-67
2022/12/30 13:55:31;;;;;;;4.97;1.17;;;;;;;;;;4979869;28;20200;-67
2022/12/30 13:58:05;;;;;;;2.03;1.00;;;;;;;;;;4986895;28;20273;-67
2022/12/30 14:00:41;;;;;;;3.72;0.98;;;;;;;;;;4977023;28;20245;-66
2022/12/30 14:03:11;;;;;;;5.07;0.90;;;;;;;;;;4988085;28;20187;-67
2022/12/30 14:05:36;;;;;;;7.50;1.13;;;;;;;;;;4987798;28;20188;-67
2022/12/30 14:08:04;;;;;;;6.10;1.20;;;;;;;;;;4986683;28;20188;-67
2022/12/30 14:11:03;;;;;;;5.13;1.10;;;;;;;;;;4989946;28;20609;-67
2022/12/30 14:13:31;;;;;;;2.85;1.17;;;;;;;;;;4988191;28;20569;-67
2022/12/30 14:16:38;;;;;;;5.07;1.10;;;;;;;;;;4991573;28;20303;-67
2022/12/30 14:19:12;;;;;;;6.18;1.60;;;;;;;;;;4987460;28;20289;-67
2022/12/30 14:21:51;;;;;;;3.25;1.20;;;;;;;;;;4991187;28;20194;-68
2022/12/30 14:24:33;;;;;;;7.88;1.63;;;;;;;;;;5000590;28;20285;-68
2022/12/30 14:26:59;;;;;;;5.53;1.40;;;;;;;;;;4997588;28;20194;-68
2022/12/30 14:29:31;;;;;;;6.82;1.48;;;;;;;;;;4997628;28;20277;-68
2022/12/30 14:32:01;;;;;;;4.25;1.23;;;;;;;;;;4999048;28;20207;-68
2022/12/30 14:34:36;;;;;;;4.28;1.30;;;;;;;;;;4971420;28;20200;-67
2022/12/30 14:37:20;;;;;;;8.02;1.60;;;;;;;;;;4978304;28;20198;-67
2022/12/30 14:39:45;;;;;;;8.15;1.52;;;;;;;;;;4987637;28;20207;-67
2022/12/30 14:42:26;;;;;;;5.00;1.38;;;;;;;;;;4980128;28;20272;-68
2022/12/30 14:44:56;;;;;;;6.40;1.67;;;;;;;;;;4993940;28;20299;-69
2022/12/30 14:47:54;;;;;;;6.13;1.30;;;;;;;;;;4997608;28;20245;-67
2022/12/30 14:50:28;;;;;;;5.03;1.30;;;;;;;;;;4960813;28;20218;-68
2022/12/30 14:53:01;;;;;;;5.47;1.30;;;;;;;;;;4985912;28;20229;-67
2022/12/30 14:55:29;;;;;;;4.90;1.20;;;;;;;;;;4983753;28;20667;-68
2022/12/30 14:58:02;;;;;;;6.43;1.33;;;;;;;;;;4989816;28;20713;-68
2022/12/30 15:00:32;;;;;;;1.92;1.10;;;;;;;;;;4985498;28;20219;-67
2022/12/30 15:02:59;;;;;;;8.02;1.70;;;;;;;;;;5001059;28;20219;-68
2022/12/30 15:05:24;;;;;;;6.57;1.93;;;;;;;;;;4995036;28;20191;-67
2022/12/30 15:07:57;;;;;;;2.85;1.50;;;;;;;;;;4991504;28;20242;-68
2022/12/30 15:10:49;;;;;;;3.88;1.45;;;;;;;;;;4988728;28;20604;-67
2022/12/30 15:13:17;;;;;;;5.88;1.67;;;;;;;;;;4986814;28;20215;-67
2022/12/30 15:15:47;;;;;;;5.07;2.22;;;;;;;;;;4994568;28;20282;-68
2022/12/30 15:18:37;;;;;;;4.10;1.75;;;;;;;;;;4986977;28;20742;-67
2022/12/30 15:21:34;;;;;;;4.70;1.60;;;;;;;;;;4989189;28;20218;-67
2022/12/30 15:24:00;;;;;;;4.35;1.88;;;;;;;;;;4986847;28;20581;-67
2022/12/30 15:26:35;;;;;;;6.72;1.70;;;;;;;;;;4995155;28;20210;-67
2022/12/30 15:29:06;;;;;;;6.07;1.88;;;;;;;;;;4998895;28;20187;-68
2022/12/30 15:31:32;;;;;;;7.72;2.80;;;;;;;;;;4997203;28;20270;-68
2022/12/30 15:34:06;;;;;;;5.40;1.50;;;;;;;;;;5002426;28;20555;-68
2022/12/30 15:36:32;;;;;;;7.55;1.80;;;;;;;;;;5004700;28;20285;-67
2022/12/30 15:39:00;;;;;;;5.82;1.63;;;;;;;;;;4990977;28;20229;-68
2022/12/30 15:41:31;;;;;;;4.10;1.50;;;;;;;;;;4999888;28;20270;-68
2022/12/30 15:43:59;;;;;;;4.73;1.40;;;;;;;;;;5006515;28;20183;-69
2022/12/30 15:46:39;;;;;;;5.83;2.57;;;;;;;;;;5005508;28;20226;-68
2022/12/30 15:49:18;;;;;;;4.95;1.70;;;;;;;;;;4985373;28;20682;-68
2022/12/30 15:51:48;;;;;;;5.28;1.98;;;;;;;;;;5003008;28;20195;-67